»·PEaware :: N4732A KSBA-KBUR

N4732A :: KSBA-KBUR

FLIGHT INFORMATION

Flight Status: Arrived
Operator: Privately registered:
United States
More flights under this callsign
Pilot: Cody L. (17310)
Aircraft: CESSNA 172 SKYHAWK
(C172)
More flights by this aircraft type
Origin: KSBA Santa Barbara Mun
United States
Destination: KBUR Bob Hope-Burbank
United States
More flights between these airports :: More routes between these airports
Route: +KWANG FIM V186 VNY
File this flight plan on PilotEdge
Remarks: CAT-8
Altitude:
(Current/Filed)
5,500
Speed:
(Current/Filed)
115kts
Departed: 31-Dec-17 08:29 AM
Arrived: 31-Dec-17 09:16 AM
Distance/Time
Traveled:
75nm/0:47
Distance/Time
To Go:
Arrived

Flight Plot

Page will automatically refresh every two minutes.

Flight plan parsing failed; only flown route is shown


Map Options




Map Legend


Flown Route
Filed Route
Departure Airport
Arrival Airport
Navaid (VOR, NDB)
Fix

Horizontal Profiles

Position Reports

Time Latitude Longitude Heading Altitude Ground
Speed
31-Dec-17 08:16 34.422974 -119.836175 175 15ft 0kts
31-Dec-17 08:17 34.422974 -119.836175 175 15ft 0kts
31-Dec-17 08:18 34.422974 -119.836175 175 15ft 0kts
31-Dec-17 08:19 34.422974 -119.836175 175 15ft 0kts
31-Dec-17 08:20 34.422974 -119.836175 175 15ft 0kts
31-Dec-17 08:21 34.422974 -119.836175 175 15ft 0kts
31-Dec-17 08:22 34.422974 -119.836175 175 15ft 0kts
31-Dec-17 08:23 34.422974 -119.836175 175 15ft 0kts
31-Dec-17 08:24 34.422974 -119.836175 175 15ft 0kts
31-Dec-17 08:25 34.422973 -119.836175 175 15ft 0kts
31-Dec-17 08:26 34.422973 -119.836175 175 15ft 0kts
31-Dec-17 08:27 34.422973 -119.836175 175 15ft 0kts
31-Dec-17 08:28 34.422973 -119.836175 175 15ft 0kts
31-Dec-17 08:29 34.422973 -119.836175 175 15ft 0kts
31-Dec-17 08:30 34.422902 -119.836407 288 15ft 6kts
31-Dec-17 08:31 34.425291 -119.837911 342 15ft 12kts
31-Dec-17 08:32 34.428636 -119.838950 346 15ft 16kts
31-Dec-17 08:33 34.430675 -119.839859 250 15ft 0kts
31-Dec-17 08:34 34.430675 -119.839859 250 15ft 0kts
31-Dec-17 08:35 34.427045 -119.839215 164 40ft 68kts
31-Dec-17 08:36 34.406223 -119.831564 162 799ft 88kts
31-Dec-17 08:37 34.382412 -119.819491 108 1333ft 97kts
31-Dec-17 08:38 34.384658 -119.787479 80 1829ft 103kts
31-Dec-17 08:39 34.386098 -119.751569 94 2538ft 110kts
31-Dec-17 08:40 34.378808 -119.715318 105 3234ft 111kts
31-Dec-17 08:41 34.368178 -119.680645 109 3925ft 110kts
31-Dec-17 08:42 34.356560 -119.646643 110 4622ft 108kts
31-Dec-17 08:43 34.344836 -119.613429 110 5315ft 107kts
31-Dec-17 08:44 34.332793 -119.579897 111 5478ft 108kts
31-Dec-17 08:45 34.320938 -119.546973 111 5478ft 106kts
31-Dec-17 08:46 34.310125 -119.514223 86 5477ft 105kts
31-Dec-17 08:47 34.312214 -119.478472 84 5478ft 105kts
31-Dec-17 08:48 34.314733 -119.443130 83 5478ft 105kts
31-Dec-17 08:49 34.317391 -119.407733 83 5478ft 105kts
31-Dec-17 08:50 34.320007 -119.373378 83 5478ft 105kts
31-Dec-17 08:51 34.322623 -119.339074 84 5479ft 105kts
31-Dec-17 08:52 34.325335 -119.303569 84 5479ft 105kts
31-Dec-17 08:53 34.328032 -119.267982 84 5479ft 107kts
31-Dec-17 08:54 34.330781 -119.231559 84 5444ft 110kts
31-Dec-17 08:55 34.333523 -119.195080 83 5441ft 108kts
31-Dec-17 08:56 34.336028 -119.161656 84 5444ft 106kts
31-Dec-17 08:57 34.338699 -119.126399 84 5445ft 106kts
31-Dec-17 08:58 34.341359 -119.090620 84 5446ft 107kts
31-Dec-17 08:59 34.343997 -119.054900 84 5441ft 106kts
31-Dec-17 09:00 34.346643 -119.019515 85 5441ft 106kts
31-Dec-17 09:01 34.349248 -118.983884 85 5449ft 106kts
31-Dec-17 09:02 34.351851 -118.948090 86 5443ft 106kts
31-Dec-17 09:03 34.354436 -118.912384 85 5438ft 106kts
31-Dec-17 09:04 34.354475 -118.876964 107 5440ft 106kts
31-Dec-17 09:05 34.343799 -118.843577 111 5444ft 107kts
31-Dec-17 09:06 34.332535 -118.810284 112 5441ft 107kts
31-Dec-17 09:07 34.321148 -118.776822 112 5443ft 109kts
31-Dec-17 09:08 34.309439 -118.742528 112 5442ft 111kts
31-Dec-17 09:09 34.302084 -118.707539 94 5442ft 111kts
31-Dec-17 09:10 34.294063 -118.674174 141 5443ft 110kts
31-Dec-17 09:11 34.276635 -118.644221 115 5442ft 111kts
31-Dec-17 09:12 34.264336 -118.610445 112 5442ft 111kts
31-Dec-17 09:13 34.252646 -118.576541 112 5466ft 109kts
31-Dec-17 09:14 34.241014 -118.542683 112 5469ft 111kts
31-Dec-17 09:15 34.231293 -118.514381 112 5469ft 111kts
31-Dec-17 09:16 34.220062 -118.475769 113 5204ft 112kts
31-Dec-17 09:17 34.206844 -118.447306 122 4448ft 97kts
31-Dec-17 09:18 34.193420 -118.429748 148 3659ft 75kts
31-Dec-17 09:19 34.190832 -118.415668 9 2436ft 77kts
31-Dec-17 09:20 34.198269 -118.399300 88 1581ft 74kts
31-Dec-17 09:21 34.197934 -118.371498 91 820ft 67kts
31-Dec-17 09:22 34.197947 -118.360422 46 733ft 7kts
31-Dec-17 09:23 34.198585 -118.360404 356 733ft 0kts
31-Dec-17 09:24 34.199823 -118.359848 81 733ft 9kts

Navigation Log

Ident Type
Flight plan parsing failed, navigation log unavailable